Terminal Aerodrome Forecast
Issued by NWS Sterling, VA

Current Version | Previous Version | Graphics & Text | Print | Product List | Glossary On
Versions: 1 2 3 4 5 6 7 8 9 10 11 12 13 14 15 16 17 18 19 20 21
000
FTUS41 KLWX 300857 AAA
TAFDCA
TAF AMD
KDCA 300857Z 3009/0106 05015G23KT 6SM -DZ OVC010
     FM301200 05013KT 5SM -DZ OVC008
     FM302300 06011KT 5SM -SHRADZ OVC008=

USA.gov is the U.S. government's official web portal to all federal, state and local government web resources and services.